Caneyville, KY (42721)

5:39 PM CDT on August 30, 2016 (GMT -0500)
Peth (Bratcher Farms) | | Change Station

Elev 554 ft 37.40 °N, 86.46 °W | Updated 14 minutes ago

Partly Cloudy
Partly Cloudy
97.3 °F
Feels Like 113 °F
N
1.7
Wind Variable Wind from NE

Today
High -- | Low -- °F
--% Chance of Precip.
Yesterday
High -- | Low -- °F
Precip. -- in
Pressure 30.01 in
Visibility 10.0 miles
Clouds Few 6000 ft
Heat Index 113 °F
Dew Point 77 °F
Humidity 52%
Rainfall 0.00 in
Snow Depth Not available.
6:15 AM 7:17 PM
Waning Crescent, 2% visible
METAR KBWG 302153Z AUTO 04004KT 10SM FEW060 33/22 A3002 RMK AO2 SLP160 T03330217
Pressure 30.01 in
Visibility 10.0 miles
Clouds Few 6000 ft
Heat Index 113 °F
Dew Point 77 °F
Humidity 52%
Rainfall 0.00 in
Snow Depth Not available.
6:15 AM 7:17 PM
Waning Crescent, 2% visible
METAR KBWG 302153Z AUTO 04004KT 10SM FEW060 33/22 A3002 RMK AO2 SLP160 T03330217

10-Day Weather Forecast

Almanac

Astronomy

Aug. 30, 2016 Rise Set
Actual Time
Civil Twilight
Nautical Twilight
Astronomical Twilight
Moon
Length of Visible Light
Length of Day
Tomorrow will be .
, % of the Moon is Illuminated

Today's Extremes

State Highs State Lows

Community

WunderPhotos

Upload Photos

1,935,914 photos uploaded!

WunderBlog® & News

Nearby

Air Quality

  Air Quality AQ Index Pollutant
Not available.

Snow Depth

Station Depth Elevation

Earthquake Activity

City Distance Mag. Time & Date
Minimum magnitude displayed is 2.5.

Coastal Water Temperatures

Place Temperature

Stations

Nearby Weather Stations

Station Location Temp. Windchill Dew Point Humidity Wind Precip. Elev Updated Type
                   

Watches & Warnings

There are currently no watches in effect.